createdAt,value
2017-11-25T00:00:19.404Z,81.50
2017-11-25T00:02:45.632Z,81.50
2017-11-25T00:05:11.842Z,81.50
2017-11-25T00:07:38.105Z,81.30
2017-11-25T00:10:04.401Z,81.40
2017-11-25T00:12:30.688Z,81.70
2017-11-25T00:14:57.295Z,81.60
2017-11-25T00:17:23.538Z,81.60
2017-11-25T00:19:49.773Z,81.70
2017-11-25T00:22:15.997Z,81.90
2017-11-25T00:24:42.246Z,81.70
2017-11-25T00:27:08.839Z,81.50
2017-11-25T00:29:35.096Z,81.50
2017-11-25T00:32:01.312Z,81.40
2017-11-25T00:34:27.544Z,82.00
2017-11-25T00:36:53.811Z,82.10
2017-11-25T00:39:20.017Z,82.30
2017-11-25T00:41:46.611Z,82.20
2017-11-25T00:44:12.832Z,82.20
2017-11-25T00:46:39.049Z,82.20
2017-11-25T00:49:05.270Z,81.70
2017-11-25T00:51:31.488Z,81.50
2017-11-25T00:53:57.750Z,81.30
2017-11-25T00:56:23.975Z,81.50
2017-11-25T00:58:50.231Z,81.40
2017-11-25T01:01:16.459Z,81.70
2017-11-25T01:03:42.695Z,81.90
2017-11-25T01:06:08.914Z,81.80
2017-11-25T01:08:35.133Z,81.90
2017-11-25T01:11:01.337Z,81.90
2017-11-25T01:13:27.558Z,81.80
2017-11-25T01:15:53.789Z,81.40
2017-11-25T01:18:20.014Z,81.20
2017-11-25T01:20:46.242Z,81.40
2017-11-25T01:23:12.461Z,81.50
2017-11-25T01:25:38.684Z,81.10
2017-11-25T01:28:04.894Z,80.90
2017-11-25T01:30:31.097Z,80.70
2017-11-25T01:32:57.317Z,81.00
2017-11-25T01:35:23.559Z,81.20
2017-11-25T01:37:49.756Z,81.00
2017-11-25T01:40:16.074Z,81.50
2017-11-25T01:42:42.324Z,81.90
2017-11-25T01:45:08.586Z,81.80
2017-11-25T01:47:35.173Z,81.20
2017-11-25T01:50:01.408Z,81.20
2017-11-25T01:52:27.619Z,81.30
2017-11-25T01:54:53.898Z,82.10
2017-11-25T01:57:20.525Z,82.00
2017-11-25T01:59:46.758Z,82.00
2017-11-25T02:02:12.963Z,81.60
2017-11-25T02:04:39.199Z,81.80
2017-11-25T02:07:05.487Z,81.50
2017-11-25T02:09:31.761Z,81.20
2017-11-25T02:11:57.985Z,82.00
2017-11-25T02:14:24.253Z,82.10
2017-11-25T02:16:50.878Z,82.10
2017-11-25T02:19:17.156Z,82.10
2017-11-25T02:21:43.423Z,82.50
2017-11-25T02:24:09.686Z,82.30
2017-11-25T02:26:35.929Z,83.10
2017-11-25T02:29:02.508Z,82.30
2017-11-25T02:31:28.762Z,82.10
2017-11-25T02:33:55.376Z,81.80
2017-11-25T02:36:21.641Z,81.90
2017-11-25T02:38:47.888Z,81.50
2017-11-25T02:41:14.132Z,81.80
2017-11-25T02:43:40.407Z,81.50
2017-11-25T02:46:06.633Z,81.60
2017-11-25T02:48:32.903Z,81.90
2017-11-25T02:50:59.156Z,81.30
2017-11-25T02:53:25.390Z,81.80
2017-11-25T02:55:51.634Z,81.50
2017-11-25T02:58:17.908Z,81.70
2017-11-25T03:00:44.164Z,81.80
2017-11-25T03:03:10.438Z,82.10
2017-11-25T03:05:37.096Z,81.60
2017-11-25T03:08:03.370Z,81.50
2017-11-25T03:10:29.621Z,81.60
2017-11-25T03:12:55.905Z,81.50
2017-11-25T03:15:22.180Z,81.10
2017-11-25T03:17:48.417Z,81.00
2017-11-25T03:20:15.040Z,81.00
2017-11-25T03:22:41.269Z,81.00
2017-11-25T03:25:07.564Z,81.10
2017-11-25T03:27:33.813Z,81.20
2017-11-25T03:30:00.052Z,81.10
2017-11-25T03:32:26.252Z,81.20
2017-11-25T03:34:52.481Z,81.20
2017-11-25T03:37:18.705Z,81.60
2017-11-25T03:39:44.966Z,81.90
2017-11-25T03:42:11.203Z,82.20
2017-11-25T03:44:37.414Z,82.20
2017-11-25T03:47:03.633Z,82.40
2017-11-25T03:49:29.870Z,82.30
2017-11-25T03:51:56.152Z,81.90
2017-11-25T03:54:22.401Z,82.30
2017-11-25T03:56:48.650Z,82.30
2017-11-25T03:59:14.933Z,82.30
2017-11-25T04:01:41.158Z,82.30
2017-11-25T04:04:07.352Z,82.20
2017-11-25T04:06:33.577Z,82.30
2017-11-25T04:08:59.815Z,82.50
2017-11-25T04:11:26.056Z,82.30
2017-11-25T04:13:52.639Z,82.60
2017-11-25T04:16:18.863Z,82.60
2017-11-25T04:18:45.120Z,82.40
2017-11-25T04:21:11.417Z,82.40
2017-11-25T04:23:37.647Z,82.20
2017-11-25T04:26:03.876Z,82.20
2017-11-25T04:28:30.096Z,82.40
2017-11-25T04:30:56.336Z,82.50
2017-11-25T04:33:22.565Z,82.60
2017-11-25T04:35:48.789Z,82.50
2017-11-25T04:38:14.988Z,82.50
2017-11-25T04:40:41.212Z,82.30
2017-11-25T04:43:07.409Z,82.20
2017-11-25T04:45:33.610Z,82.10
2017-11-25T04:47:59.861Z,82.20
2017-11-25T04:50:26.094Z,82.00
2017-11-25T04:52:52.335Z,81.90
2017-11-25T04:55:18.940Z,82.30
2017-11-25T04:57:45.264Z,82.30
2017-11-25T05:00:11.533Z,82.40
2017-11-25T05:02:37.827Z,82.50
2017-11-25T05:05:04.093Z,82.30
2017-11-25T05:07:30.734Z,82.50
2017-11-25T05:09:56.976Z,82.50
2017-11-25T05:12:23.235Z,82.60
2017-11-25T05:14:49.507Z,82.60
2017-11-25T05:17:16.188Z,82.00
2017-11-25T05:19:42.435Z,82.00
2017-11-25T05:22:08.649Z,82.50
2017-11-25T05:24:34.901Z,83.40
2017-11-25T05:27:01.164Z,83.90
2017-11-25T05:29:27.788Z,83.40
2017-11-25T05:31:54.049Z,83.40
2017-11-25T05:34:20.329Z,83.20
2017-11-25T05:36:46.558Z,83.00
2017-11-25T05:39:12.808Z,82.80
2017-11-25T05:41:39.078Z,82.80
2017-11-25T05:44:05.348Z,83.20
2017-11-25T05:46:31.541Z,82.90
2017-11-25T05:48:57.782Z,83.20
2017-11-25T05:51:24.040Z,84.30
2017-11-25T05:53:50.291Z,84.20
2017-11-25T05:56:16.852Z,83.00
2017-11-25T05:58:43.072Z,83.00
2017-11-25T06:01:09.337Z,82.60
2017-11-25T06:03:35.542Z,82.40
2017-11-25T06:06:01.787Z,82.50
2017-11-25T06:08:28.047Z,82.70
2017-11-25T06:10:54.237Z,82.60
2017-11-25T06:13:20.439Z,82.60
2017-11-25T06:15:46.661Z,83.00
2017-11-25T06:18:12.877Z,83.00
2017-11-25T06:20:39.108Z,83.00
2017-11-25T06:23:05.357Z,82.80
2017-11-25T06:25:31.599Z,83.00
2017-11-25T06:27:57.855Z,83.10
2017-11-25T06:30:24.094Z,83.20
2017-11-25T06:32:50.332Z,83.50
2017-11-25T06:35:16.572Z,84.00
2017-11-25T06:37:43.176Z,84.00
2017-11-25T06:40:09.406Z,84.00
2017-11-25T06:42:35.609Z,84.00
2017-11-25T06:45:01.818Z,84.10
2017-11-25T06:47:28.070Z,84.20
2017-11-25T06:49:54.280Z,84.30
2017-11-25T06:52:20.482Z,84.60
2017-11-25T06:54:46.712Z,84.40
2017-11-25T06:57:12.952Z,84.30
2017-11-25T06:59:39.169Z,84.00
2017-11-25T07:02:05.762Z,84.00
2017-11-25T07:04:32.008Z,84.00
2017-11-25T07:06:58.210Z,84.00
2017-11-25T07:09:24.412Z,83.80
2017-11-25T07:11:50.652Z,84.00
2017-11-25T07:14:16.918Z,84.10
2017-11-25T07:16:43.167Z,83.40
2017-11-25T07:19:09.409Z,83.90
2017-11-25T07:21:35.654Z,84.10
2017-11-25T07:24:01.896Z,84.10
2017-11-25T07:26:28.127Z,84.40
2017-11-25T07:28:54.423Z,84.30
2017-11-25T07:31:20.639Z,83.20
2017-11-25T07:33:47.217Z,84.20
2017-11-25T07:36:13.451Z,84.10
2017-11-25T07:38:39.674Z,83.80
2017-11-25T07:41:05.965Z,83.50
2017-11-25T07:43:32.609Z,83.40
2017-11-25T07:45:58.879Z,83.40
2017-11-25T07:48:25.170Z,83.30
2017-11-25T07:50:51.446Z,83.10
2017-11-25T07:53:17.667Z,83.70
2017-11-25T07:55:43.937Z,83.10
2017-11-25T07:58:10.555Z,84.20
2017-11-25T08:00:36.787Z,84.20
2017-11-25T08:03:03.005Z,85.00
2017-11-25T08:05:29.238Z,84.50
2017-11-25T08:07:55.494Z,84.40
2017-11-25T08:10:22.151Z,83.90
2017-11-25T08:12:48.375Z,83.90
2017-11-25T08:15:14.619Z,83.40
2017-11-25T08:17:40.866Z,83.70
2017-11-25T08:20:07.113Z,84.10
2017-11-25T08:22:33.753Z,84.80
2017-11-25T08:25:00.048Z,84.80
2017-11-25T08:27:26.264Z,84.70
2017-11-25T08:29:52.514Z,84.60
2017-11-25T08:32:18.756Z,84.20
2017-11-25T08:34:45.004Z,84.40
2017-11-25T08:37:11.247Z,83.50
2017-11-25T08:39:37.824Z,83.90
2017-11-25T08:42:04.487Z,83.90
2017-11-25T08:44:30.741Z,84.20
2017-11-25T08:46:57.329Z,84.30
2017-11-25T08:49:23.561Z,84.30
2017-11-25T08:51:49.850Z,83.90
2017-11-25T08:54:16.082Z,83.80
2017-11-25T08:56:43.715Z,84.00
2017-11-25T08:59:09.968Z,83.30
2017-11-25T09:01:36.550Z,82.80
2017-11-25T09:04:02.768Z,82.80
2017-11-25T09:06:28.995Z,82.50
2017-11-25T09:08:55.212Z,82.70
2017-11-25T09:11:21.456Z,82.40
2017-11-25T09:13:47.722Z,83.40
2017-11-25T09:16:13.951Z,83.80
2017-11-25T09:18:40.182Z,83.60
2017-11-25T09:21:06.836Z,82.10
2017-11-25T09:23:33.441Z,82.70
2017-11-25T09:25:59.682Z,82.70
2017-11-25T09:28:25.951Z,82.40
2017-11-25T09:30:52.243Z,81.60
2017-11-25T09:33:18.865Z,81.90
2017-11-25T09:35:45.136Z,81.90
2017-11-25T09:38:11.366Z,80.80
2017-11-25T09:40:37.663Z,81.60
2017-11-25T09:43:04.052Z,82.50
2017-11-25T09:45:30.372Z,82.80
2017-11-25T09:47:56.647Z,82.20
2017-11-25T09:50:22.912Z,81.10
2017-11-25T09:52:49.202Z,83.90
2017-11-25T09:55:15.465Z,83.80
2017-11-25T09:57:41.741Z,81.40
2017-11-25T10:00:08.015Z,83.40
2017-11-25T10:02:34.629Z,82.40
2017-11-25T10:05:00.835Z,82.40
2017-11-25T10:07:27.100Z,83.60
2017-11-25T10:09:53.747Z,82.00
2017-11-25T10:12:20.372Z,81.30
2017-11-25T10:14:46.975Z,82.30
2017-11-25T10:17:13.228Z,82.30
2017-11-25T10:19:39.442Z,83.10
2017-11-25T10:22:05.667Z,82.40
2017-11-25T10:24:31.864Z,79.90
2017-11-25T10:26:58.123Z,80.50
2017-11-25T10:29:24.355Z,81.50
2017-11-25T10:31:50.586Z,80.60
2017-11-25T10:34:16.802Z,81.00
2017-11-25T10:36:43.093Z,82.20
2017-11-25T10:39:09.314Z,82.60
2017-11-25T10:41:35.587Z,81.40
2017-11-25T10:44:01.815Z,82.40
2017-11-25T10:46:28.076Z,82.10
2017-11-25T10:48:54.686Z,82.20
2017-11-25T10:51:20.910Z,82.20
2017-11-25T10:53:47.132Z,81.10
2017-11-25T10:56:13.336Z,81.70
2017-11-25T10:58:39.628Z,82.40
2017-11-25T11:01:06.276Z,82.40
2017-11-25T11:03:32.572Z,82.50
2017-11-25T11:05:58.830Z,81.10
2017-11-25T11:08:25.485Z,84.10
2017-11-25T11:10:52.197Z,84.10
2017-11-25T11:13:18.889Z,84.20
2017-11-25T11:15:45.160Z,84.20
2017-11-25T11:18:11.455Z,84.20
2017-11-25T11:20:37.701Z,83.10
2017-11-25T11:23:03.947Z,82.50
2017-11-25T11:25:30.205Z,83.40
2017-11-25T11:27:56.429Z,82.60
2017-11-25T11:30:22.656Z,83.80
2017-11-25T11:32:48.922Z,86.40
2017-11-25T11:35:15.158Z,85.50
2017-11-25T11:37:41.372Z,85.50
2017-11-25T11:40:07.662Z,85.50
2017-11-25T11:42:34.315Z,83.60
2017-11-25T11:45:00.580Z,83.40
2017-11-25T11:47:26.806Z,83.40
2017-11-25T11:49:53.050Z,82.20
2017-11-25T11:52:19.284Z,84.40
2017-11-25T11:54:45.558Z,84.20
2017-11-25T11:57:11.862Z,84.00
2017-11-25T11:59:38.470Z,82.70
2017-11-25T12:02:04.753Z,82.70
2017-11-25T12:04:31.026Z,84.20
2017-11-25T12:06:57.273Z,83.20
2017-11-25T12:09:23.505Z,83.30
2017-11-25T12:11:49.780Z,82.90
2017-11-25T12:14:16.037Z,83.10
2017-11-25T12:16:42.288Z,82.40
2017-11-25T12:19:08.502Z,84.20
2017-11-25T12:21:34.818Z,83.20
2017-11-25T12:24:01.064Z,82.60
2017-11-25T12:26:27.275Z,82.80
2017-11-25T12:28:53.552Z,83.80
2017-11-25T12:31:19.749Z,83.90
2017-11-25T12:33:46.028Z,83.90
2017-11-25T12:36:12.318Z,85.20
2017-11-25T12:38:38.646Z,85.50
2017-11-25T12:41:04.935Z,85.70
2017-11-25T12:43:31.263Z,85.00
2017-11-25T12:45:57.515Z,84.90
2017-11-25T12:48:23.756Z,84.70
2017-11-25T12:50:50.223Z,84.50
2017-11-25T12:53:16.506Z,83.10
2017-11-25T12:55:42.736Z,83.90
2017-11-25T12:58:09.014Z,84.20
2017-11-25T13:00:35.235Z,85.30
2017-11-25T13:03:01.851Z,85.50
2017-11-25T13:05:28.097Z,85.50
2017-11-25T13:07:54.736Z,84.30
2017-11-25T13:10:20.994Z,84.30
2017-11-25T13:12:47.253Z,83.70
2017-11-25T13:15:13.457Z,83.70
2017-11-25T13:17:39.684Z,83.50
2017-11-25T13:20:05.937Z,85.90
2017-11-25T13:22:33.004Z,84.90
2017-11-25T13:24:59.217Z,84.60
2017-11-25T13:27:25.440Z,84.90
2017-11-25T13:29:51.684Z,85.40
2017-11-25T13:32:17.937Z,85.10
2017-11-25T13:34:44.239Z,85.40
2017-11-25T13:37:10.458Z,85.60
2017-11-25T13:39:36.717Z,84.20
2017-11-25T13:42:03.402Z,83.70
2017-11-25T13:44:29.698Z,83.70
2017-11-25T13:46:55.983Z,83.20
2017-11-25T13:49:22.295Z,84.30
2017-11-25T13:51:48.538Z,84.60
2017-11-25T13:54:14.826Z,84.00
2017-11-25T13:56:41.093Z,83.90
2017-11-25T13:59:07.410Z,84.10
2017-11-25T14:01:33.628Z,83.10
2017-11-25T14:03:59.895Z,84.30
2017-11-25T14:06:26.198Z,83.40
2017-11-25T14:08:52.468Z,82.90
2017-11-25T14:11:19.127Z,82.70
2017-11-25T14:13:45.408Z,82.70
2017-11-25T14:16:11.703Z,82.90
2017-11-25T14:18:37.978Z,83.50
2017-11-25T14:21:04.262Z,84.40
2017-11-25T14:23:30.521Z,84.10
2017-11-25T14:25:56.771Z,83.90
2017-11-25T14:28:23.014Z,84.40
2017-11-25T14:30:49.764Z,83.70
2017-11-25T14:33:16.403Z,84.00
2017-11-25T14:35:42.675Z,84.00
2017-11-25T14:38:08.986Z,83.60
2017-11-25T14:40:35.237Z,83.80
2017-11-25T14:43:01.502Z,84.60
2017-11-25T14:45:27.783Z,83.80
2017-11-25T14:47:54.072Z,84.30
2017-11-25T14:50:20.335Z,84.70
2017-11-25T14:52:46.877Z,84.10
2017-11-25T14:55:13.125Z,84.00
2017-11-25T14:57:39.414Z,84.20
2017-11-25T15:00:05.658Z,83.90
2017-11-25T15:02:31.907Z,85.30
2017-11-25T15:04:58.187Z,85.40
2017-11-25T15:07:24.763Z,85.10
2017-11-25T15:09:51.099Z,85.10
2017-11-25T15:12:17.321Z,85.10
2017-11-25T15:14:43.703Z,85.60
2017-11-25T15:17:10.367Z,85.50
2017-11-25T15:19:36.660Z,85.50
2017-11-25T15:22:02.956Z,86.10
2017-11-25T15:24:29.251Z,86.00
2017-11-25T15:26:55.525Z,85.40
2017-11-25T15:29:21.837Z,85.10
2017-11-25T15:31:48.080Z,85.40
2017-11-25T15:34:14.321Z,85.50
2017-11-25T15:36:40.861Z,85.60
2017-11-25T15:39:07.135Z,85.60
2017-11-25T15:41:33.387Z,85.80
2017-11-25T15:43:59.927Z,85.70
2017-11-25T15:46:26.200Z,85.80
2017-11-25T15:48:52.477Z,86.00
2017-11-25T15:51:18.758Z,86.80
2017-11-25T15:53:45.687Z,86.80
2017-11-25T15:56:12.030Z,86.80
2017-11-25T15:58:38.728Z,86.00
2017-11-25T16:01:05.060Z,86.00
2017-11-25T16:03:31.383Z,86.20
2017-11-25T16:05:57.687Z,86.00
2017-11-25T16:08:23.957Z,86.40
2017-11-25T16:10:50.236Z,86.60
2017-11-25T16:13:16.519Z,86.40
2017-11-25T16:15:42.837Z,86.40
2017-11-25T16:18:09.066Z,86.50
2017-11-25T16:20:35.347Z,86.30
2017-11-25T16:23:01.969Z,86.20
2017-11-25T16:25:28.656Z,86.90
2017-11-25T16:27:54.955Z,86.90
2017-11-25T16:30:21.252Z,86.20
2017-11-25T16:32:47.514Z,86.70
2017-11-25T16:35:13.802Z,86.80
2017-11-25T16:37:40.133Z,87.60
2017-11-25T16:40:06.520Z,88.10
2017-11-25T16:42:32.792Z,88.70
2017-11-25T16:44:59.103Z,88.60
2017-11-25T16:47:25.671Z,88.90
2017-11-25T16:49:51.950Z,88.30
2017-11-25T16:52:18.219Z,88.50
2017-11-25T16:54:44.482Z,89.20
2017-11-25T16:57:11.116Z,89.50
2017-11-25T16:59:37.383Z,89.50
2017-11-25T17:02:03.660Z,90.00
2017-11-25T17:04:29.896Z,90.10
2017-11-25T17:06:56.991Z,89.20
2017-11-25T17:09:23.249Z,88.40
2017-11-25T17:11:49.542Z,88.30
2017-11-25T17:14:15.796Z,88.10
2017-11-25T17:16:42.063Z,88.10
2017-11-25T17:19:08.695Z,88.10
2017-11-25T17:21:35.381Z,85.20
2017-11-25T17:24:01.734Z,85.20
2017-11-25T17:26:28.085Z,85.80
2017-11-25T17:28:54.717Z,86.40
2017-11-25T17:31:21.252Z,86.40
2017-11-25T17:33:47.509Z,86.20
2017-11-25T17:36:14.118Z,85.80
2017-11-25T17:38:40.400Z,85.80
2017-11-25T17:41:06.647Z,85.70
2017-11-25T17:43:32.924Z,85.30
2017-11-25T17:45:59.193Z,84.40
2017-11-25T17:48:25.424Z,84.70
2017-11-25T17:50:52.099Z,84.80
2017-11-25T17:53:18.337Z,85.00
2017-11-25T17:55:44.563Z,87.20
2017-11-25T17:58:10.842Z,84.80
2017-11-25T18:00:37.072Z,85.00
2017-11-25T18:03:03.306Z,84.50
2017-11-25T18:05:29.557Z,85.50
2017-11-25T18:07:55.820Z,84.70
2017-11-25T18:10:22.049Z,84.80
2017-11-25T18:12:48.313Z,85.40
2017-11-25T18:15:14.590Z,85.20
2017-11-25T18:17:40.814Z,84.20
2017-11-25T18:20:07.070Z,83.90
2017-11-25T18:22:33.652Z,84.10
2017-11-25T18:24:59.912Z,84.10
2017-11-25T18:27:26.193Z,85.50
2017-11-25T18:29:52.519Z,84.50
2017-11-25T18:32:18.824Z,84.10
2017-11-25T18:34:46.043Z,85.30
2017-11-25T18:37:12.419Z,85.30
2017-11-25T18:39:38.753Z,83.70
2017-11-25T18:42:04.999Z,82.00
2017-11-25T18:44:31.256Z,83.80
2017-11-25T18:46:57.515Z,83.00
2017-11-25T18:49:23.814Z,82.20
2017-11-25T18:51:50.083Z,81.70
2017-11-25T18:54:16.343Z,80.90
2017-11-25T18:56:42.576Z,81.30
2017-11-25T18:59:08.873Z,80.70
2017-11-25T19:01:35.490Z,80.00
2017-11-25T19:04:01.739Z,80.00
2017-11-25T19:06:28.015Z,81.20
2017-11-25T19:08:54.318Z,81.20
2017-11-25T19:11:20.602Z,81.30
2017-11-25T19:13:46.895Z,82.80
2017-11-25T19:16:13.153Z,82.30
2017-11-25T19:18:39.448Z,83.00
2017-11-25T19:21:05.695Z,82.50
2017-11-25T19:23:32.001Z,82.10
2017-11-25T19:25:58.227Z,82.30
2017-11-25T19:28:24.457Z,82.70
2017-11-25T19:30:50.755Z,83.00
2017-11-25T19:33:17.414Z,82.70
2017-11-25T19:35:43.673Z,82.70
2017-11-25T19:38:09.924Z,83.00
2017-11-25T19:40:36.180Z,81.80
2017-11-25T19:43:02.445Z,81.50
2017-11-25T19:45:28.675Z,81.60
2017-11-25T19:47:54.945Z,82.60
2017-11-25T19:50:21.228Z,82.00
2017-11-25T19:52:47.480Z,81.70
2017-11-25T19:55:13.704Z,82.00
2017-11-25T19:57:40.018Z,80.80
2017-11-25T20:00:06.275Z,80.60
2017-11-25T20:02:32.495Z,80.60
2017-11-25T20:04:58.773Z,81.00
2017-11-25T20:07:25.016Z,81.30
2017-11-25T20:09:51.273Z,82.20
2017-11-25T20:12:17.521Z,80.80
2017-11-25T20:14:43.778Z,81.10
2017-11-25T20:17:10.039Z,80.50
2017-11-25T20:19:36.337Z,81.70
2017-11-25T20:22:02.937Z,80.30
2017-11-25T20:24:29.227Z,80.30
2017-11-25T20:26:55.506Z,80.40
2017-11-25T20:29:21.749Z,80.40
2017-11-25T20:31:48.401Z,80.00
2017-11-25T20:34:14.682Z,80.00
2017-11-25T20:36:40.963Z,81.00
2017-11-25T20:39:07.220Z,80.30
2017-11-25T20:41:33.483Z,80.50
2017-11-25T20:43:59.758Z,80.30
2017-11-25T20:46:25.999Z,80.80
2017-11-25T20:48:52.250Z,80.30
2017-11-25T20:51:18.521Z,81.00
2017-11-25T20:53:45.173Z,82.20
2017-11-25T20:56:11.490Z,82.20
2017-11-25T20:58:38.237Z,81.90
2017-11-25T21:01:04.833Z,81.70
2017-11-25T21:03:31.069Z,81.80
2017-11-25T21:05:57.357Z,81.10
2017-11-25T21:08:23.608Z,81.20
2017-11-25T21:10:49.879Z,81.80
2017-11-25T21:13:16.551Z,82.00
2017-11-25T21:15:42.782Z,82.00
2017-11-25T21:18:09.041Z,81.40
2017-11-25T21:20:35.318Z,81.60
2017-11-25T21:23:01.583Z,81.70
2017-11-25T21:25:27.918Z,81.40
2017-11-25T21:27:54.163Z,80.80
2017-11-25T21:30:20.492Z,80.10
2017-11-25T21:32:46.735Z,80.20
2017-11-25T21:35:12.992Z,79.60
2017-11-25T21:37:39.241Z,78.30
2017-11-25T21:40:05.968Z,78.80
2017-11-25T21:42:32.221Z,78.40
2017-11-25T21:44:58.473Z,79.00
2017-11-25T21:47:24.775Z,78.70
2017-11-25T21:49:51.047Z,78.50
2017-11-25T21:52:17.272Z,79.20
2017-11-25T21:54:43.560Z,79.30
2017-11-25T21:57:09.813Z,79.20
2017-11-25T21:59:36.087Z,79.40
2017-11-25T22:02:02.406Z,79.00
2017-11-25T22:04:29.049Z,78.90
2017-11-25T22:06:55.697Z,79.00
2017-11-25T22:09:21.929Z,79.00
2017-11-25T22:11:48.182Z,78.70
2017-11-25T22:14:14.478Z,79.70
2017-11-25T22:16:40.727Z,79.40
2017-11-25T22:19:06.983Z,78.80
2017-11-25T22:21:33.244Z,78.60
2017-11-25T22:23:59.854Z,79.20
2017-11-25T22:26:26.116Z,79.20
2017-11-25T22:28:52.745Z,79.50
2017-11-25T22:31:18.960Z,79.50
2017-11-25T22:33:45.220Z,79.70
2017-11-25T22:36:11.831Z,79.10
2017-11-25T22:38:38.062Z,79.10
2017-11-25T22:41:04.340Z,79.20
2017-11-25T22:43:30.570Z,79.10
2017-11-25T22:45:56.905Z,79.10
2017-11-25T22:48:23.161Z,79.00
2017-11-25T22:50:49.405Z,78.70
2017-11-25T22:53:15.673Z,79.20
2017-11-25T22:55:41.929Z,79.40
2017-11-25T22:58:08.170Z,79.00
2017-11-25T23:00:34.430Z,79.60
2017-11-25T23:03:00.701Z,79.60
2017-11-25T23:05:26.972Z,79.40
2017-11-25T23:07:53.236Z,79.80
2017-11-25T23:10:19.872Z,79.70
2017-11-25T23:12:46.524Z,80.10
2017-11-25T23:15:12.779Z,80.10
2017-11-25T23:17:39.020Z,79.80
2017-11-25T23:20:05.281Z,79.90
2017-11-25T23:22:31.613Z,80.00
2017-11-25T23:24:58.240Z,80.20
2017-11-25T23:27:24.487Z,80.20
2017-11-25T23:29:51.086Z,78.90
2017-11-25T23:32:17.325Z,78.90
2017-11-25T23:34:43.549Z,79.40
2017-11-25T23:37:09.787Z,79.80
2017-11-25T23:39:35.998Z,80.10
2017-11-25T23:42:02.203Z,79.60
2017-11-25T23:44:28.449Z,80.30
2017-11-25T23:46:54.666Z,79.90
2017-11-25T23:49:20.919Z,79.30
2017-11-25T23:51:47.168Z,79.70
2017-11-25T23:54:13.775Z,78.90
2017-11-25T23:56:40.001Z,78.90
2017-11-25T23:59:06.261Z,78.50
